sensor_id;sensor_type;location;lat;lon;timestamp;pressure;altitude;pressure_sealevel;temperature;humidity
55418;BME280;41287;47.554;7.844;2023-03-01T00:01:07;98530.22;;;15.88;59.28
55418;BME280;41287;47.554;7.844;2023-03-01T00:03:35;98529.13;;;15.89;59.24
55418;BME280;41287;47.554;7.844;2023-03-01T00:06:02;98528.31;;;15.88;59.34
55418;BME280;41287;47.554;7.844;2023-03-01T00:08:28;98529.13;;;15.89;59.27
55418;BME280;41287;47.554;7.844;2023-03-01T00:13:31;98534.53;;;15.89;59.21
55418;BME280;41287;47.554;7.844;2023-03-01T00:15:58;98529.13;;;15.89;59.24
55418;BME280;41287;47.554;7.844;2023-03-01T00:18:24;98529.13;;;15.89;59.41
55418;BME280;41287;47.554;7.844;2023-03-01T00:20:56;98527.50;;;15.88;59.28
55418;BME280;41287;47.554;7.844;2023-03-01T00:23:22;98524.50;;;15.89;59.45
55418;BME280;41287;47.554;7.844;2023-03-01T00:25:48;98517.50;;;15.88;59.34
55418;BME280;41287;47.554;7.844;2023-03-01T00:28:14;98515.59;;;15.89;59.35
55418;BME280;41287;47.554;7.844;2023-03-01T00:30:39;98509.41;;;15.88;59.38
55418;BME280;41287;47.554;7.844;2023-03-01T00:33:04;98514.50;;;15.90;59.32
55418;BME280;41287;47.554;7.844;2023-03-01T00:35:32;98505.59;;;15.89;59.45
55418;BME280;41287;47.554;7.844;2023-03-01T00:37:57;98507.50;;;15.89;59.09
55418;BME280;41287;47.554;7.844;2023-03-01T00:40:33;98506.69;;;15.88;59.25
55418;BME280;41287;47.554;7.844;2023-03-01T00:42:59;98514.00;;;15.88;59.36
55418;BME280;41287;47.554;7.844;2023-03-01T00:45:26;98511.00;;;15.89;59.38
55418;BME280;41287;47.554;7.844;2023-03-01T00:47:52;98507.50;;;15.89;59.38
55418;BME280;41287;47.554;7.844;2023-03-01T00:50:19;98510.19;;;15.89;59.43
55418;BME280;41287;47.554;7.844;2023-03-01T00:52:47;98504.00;;;15.88;59.29
55418;BME280;41287;47.554;7.844;2023-03-01T00:55:12;98502.91;;;15.89;59.39
55418;BME280;41287;47.554;7.844;2023-03-01T00:57:39;98501.28;;;15.88;59.41
55418;BME280;41287;47.554;7.844;2023-03-01T01:00:07;98495.88;;;15.88;59.40
55418;BME280;41287;47.554;7.844;2023-03-01T01:02:35;98504.78;;;15.89;59.27
55418;BME280;41287;47.554;7.844;2023-03-01T01:05:00;98499.38;;;15.89;59.38
55418;BME280;41287;47.554;7.844;2023-03-01T01:07:27;98496.69;;;15.89;59.28
55418;BME280;41287;47.554;7.844;2023-03-01T01:09:54;98488.59;;;15.89;59.28
55418;BME280;41287;47.554;7.844;2023-03-01T01:12:19;98490.19;;;15.90;59.54
55418;BME280;41287;47.554;7.844;2023-03-01T01:14:46;98483.19;;;15.89;59.41
55418;BME280;41287;47.554;7.844;2023-03-01T01:17:12;98480.47;;;15.89;59.29
55418;BME280;41287;47.554;7.844;2023-03-01T01:19:37;98485.06;;;15.88;59.41
55418;BME280;41287;47.554;7.844;2023-03-01T01:22:03;98479.69;;;15.88;59.43
55418;BME280;41287;47.554;7.844;2023-03-01T01:24:28;98479.69;;;15.88;59.44
55418;BME280;41287;47.554;7.844;2023-03-01T01:26:54;98481.28;;;15.89;59.43
55418;BME280;41287;47.554;7.844;2023-03-01T01:29:19;98475.06;;;15.89;59.29
55418;BME280;41287;47.554;7.844;2023-03-01T01:31:47;98466.97;;;15.89;59.32
55418;BME280;41287;47.554;7.844;2023-03-01T01:34:15;98466.16;;;15.88;59.28
55418;BME280;41287;47.554;7.844;2023-03-01T01:36:41;98453.44;;;15.89;59.32
55418;BME280;41287;47.554;7.844;2023-03-01T01:39:06;98456.16;;;15.89;59.27
55418;BME280;41287;47.554;7.844;2023-03-01T01:41:34;98455.34;;;15.88;59.41
55418;BME280;41287;47.554;7.844;2023-03-01T01:46:37;98453.44;;;15.89;59.41
55418;BME280;41287;47.554;7.844;2023-03-01T01:49:07;98445.34;;;15.89;59.27
55418;BME280;41287;47.554;7.844;2023-03-01T01:51:41;98447.25;;;15.88;59.46
55418;BME280;41287;47.554;7.844;2023-03-01T01:54:30;98442.94;;;15.87;59.48
55418;BME280;41287;47.554;7.844;2023-03-01T01:57:02;98437.25;;;15.89;59.42
55418;BME280;41287;47.554;7.844;2023-03-01T01:59:30;98435.63;;;15.88;59.35
55418;BME280;41287;47.554;7.844;2023-03-01T02:01:59;98438.84;;;15.90;59.45
55418;BME280;41287;47.554;7.844;2023-03-01T02:04:26;98431.84;;;15.89;59.46
55418;BME280;41287;47.554;7.844;2023-03-01T02:06:58;98430.22;;;15.88;59.36
55418;BME280;41287;47.554;7.844;2023-03-01T02:09:25;98429.13;;;15.89;59.43
55418;BME280;41287;47.554;7.844;2023-03-01T02:11:51;98427.53;;;15.88;59.29
55418;BME280;41287;47.554;7.844;2023-03-01T02:14:16;98419.44;;;15.88;59.29
55418;BME280;41287;47.554;7.844;2023-03-01T02:16:42;98422.94;;;15.88;59.38
55418;BME280;41287;47.554;7.844;2023-03-01T02:19:16;98419.44;;;15.88;59.46
55418;BME280;41287;47.554;7.844;2023-03-01T02:27:07;98408.63;;;15.88;59.34
55418;BME280;41287;47.554;7.844;2023-03-01T02:29:36;98405.91;;;15.88;59.39
55418;BME280;41287;47.554;7.844;2023-03-01T02:32:02;98411.31;;;15.88;59.47
55418;BME280;41287;47.554;7.844;2023-03-01T02:34:29;98400.50;;;15.88;59.31
55418;BME280;41287;47.554;7.844;2023-03-01T02:37:07;98397.00;;;15.87;59.32
55418;BME280;41287;47.554;7.844;2023-03-01T02:39:39;98392.41;;;15.88;59.41
55418;BME280;41287;47.554;7.844;2023-03-01T02:42:10;98395.09;;;15.88;59.42
55418;BME280;41287;47.554;7.844;2023-03-01T02:44:39;98389.69;;;15.88;59.40
55418;BME280;41287;47.554;7.844;2023-03-01T02:47:04;98391.31;;;15.89;59.02
55418;BME280;41287;47.554;7.844;2023-03-01T02:49:33;98392.41;;;15.88;59.34
55418;BME280;41287;47.554;7.844;2023-03-01T02:55:03;98388.09;;;15.87;59.43
55418;BME280;41287;47.554;7.844;2023-03-01T02:57:31;98381.59;;;15.88;59.42
55418;BME280;41287;47.554;7.844;2023-03-01T03:00:03;98387.81;;;15.88;59.43
55418;BME280;41287;47.554;7.844;2023-03-01T03:02:32;98387.00;;;15.88;59.23
55418;BME280;41287;47.554;7.844;2023-03-01T03:05:19;98387.81;;;15.88;59.52
55418;BME280;41287;47.554;7.844;2023-03-01T03:07:45;98380.00;;;15.87;59.37
55418;BME280;41287;47.554;7.844;2023-03-01T03:10:23;98379.38;;;15.90;59.24
55418;BME280;41287;47.554;7.844;2023-03-01T03:12:54;98381.59;;;15.88;59.48
55418;BME280;41287;47.554;7.844;2023-03-01T03:15:21;98381.59;;;15.88;59.42
55418;BME280;41287;47.554;7.844;2023-03-01T03:17:47;98373.50;;;15.88;59.35
55418;BME280;41287;47.554;7.844;2023-03-01T03:20:15;98369.97;;;15.87;59.36
55418;BME280;41287;47.554;7.844;2023-03-01T03:22:47;98369.19;;;15.87;59.34
55418;BME280;41287;47.554;7.844;2023-03-01T03:25:13;98370.78;;;15.88;59.39
55418;BME280;41287;47.554;7.844;2023-03-01T03:27:40;98369.19;;;15.87;59.41
55418;BME280;41287;47.554;7.844;2023-03-01T03:30:08;98375.38;;;15.87;59.41
55418;BME280;41287;47.554;7.844;2023-03-01T03:32:36;98370.78;;;15.88;59.32
55418;BME280;41287;47.554;7.844;2023-03-01T03:35:03;98369.97;;;15.87;59.33
55418;BME280;41287;47.554;7.844;2023-03-01T03:37:40;98375.38;;;15.87;59.44
55418;BME280;41287;47.554;7.844;2023-03-01T03:40:28;98373.50;;;15.88;59.46
55418;BME280;41287;47.554;7.844;2023-03-01T03:42:54;98367.28;;;15.87;59.43
55418;BME280;41287;47.554;7.844;2023-03-01T03:45:19;98369.97;;;15.87;59.45
55418;BME280;41287;47.554;7.844;2023-03-01T03:47:46;98365.38;;;15.88;59.38
55418;BME280;41287;47.554;7.844;2023-03-01T03:50:13;98365.69;;;15.86;59.42
55418;BME280;41287;47.554;7.844;2023-03-01T03:52:39;98364.88;;;15.86;59.46
55418;BME280;41287;47.554;7.844;2023-03-01T03:55:06;98353.78;;;15.87;59.41
55418;BME280;41287;47.554;7.844;2023-03-01T03:57:40;98367.28;;;15.87;59.42
55418;BME280;41287;47.554;7.844;2023-03-01T04:00:08;98353.78;;;15.87;59.40
55418;BME280;41287;47.554;7.844;2023-03-01T04:02:43;98349.97;;;15.88;59.46
55418;BME280;41287;47.554;7.844;2023-03-01T04:05:10;98348.38;;;15.87;59.42
55418;BME280;41287;47.554;7.844;2023-03-01T04:07:37;98348.38;;;15.87;59.41
55418;BME280;41287;47.554;7.844;2023-03-01T04:10:05;98357.28;;;15.88;59.38
55418;BME280;41287;47.554;7.844;2023-03-01T04:12:32;98349.16;;;15.88;59.38
55418;BME280;41287;47.554;7.844;2023-03-01T04:15:01;98351.06;;;15.87;59.47
55418;BME280;41287;47.554;7.844;2023-03-01T04:17:27;98349.16;;;15.88;59.31
55418;BME280;41287;47.554;7.844;2023-03-01T04:19:52;98346.47;;;15.88;59.48
55418;BME280;41287;47.554;7.844;2023-03-01T04:22:18;98347.56;;;15.87;59.49
55418;BME280;41287;47.554;7.844;2023-03-01T04:24:44;98347.56;;;15.87;59.38
55418;BME280;41287;47.554;7.844;2023-03-01T04:27:10;98349.16;;;15.88;59.44
55418;BME280;41287;47.554;7.844;2023-03-01T04:29:36;98337.56;;;15.87;59.41
55418;BME280;41287;47.554;7.844;2023-03-01T04:32:01;98342.16;;;15.87;59.51
55418;BME280;41287;47.554;7.844;2023-03-01T04:34:28;98342.16;;;15.87;59.34
55418;BME280;41287;47.554;7.844;2023-03-01T04:36:53;98337.56;;;15.87;59.44
55418;BME280;41287;47.554;7.844;2023-03-01T04:39:20;98332.16;;;15.87;59.50
55418;BME280;41287;47.554;7.844;2023-03-01T04:41:47;98332.16;;;15.87;59.24
55418;BME280;41287;47.554;7.844;2023-03-01T04:44:13;98330.25;;;15.88;59.50
55418;BME280;41287;47.554;7.844;2023-03-01T04:46:40;98334.84;;;15.87;59.42
55418;BME280;41287;47.554;7.844;2023-03-01T04:49:06;98328.66;;;15.87;59.37
55418;BME280;41287;47.554;7.844;2023-03-01T04:51:31;98334.84;;;15.87;59.36
55418;BME280;41287;47.554;7.844;2023-03-01T04:53:57;98332.16;;;15.87;59.50
55418;BME280;41287;47.554;7.844;2023-03-01T04:56:23;98326.75;;;15.87;59.33
55418;BME280;41287;47.554;7.844;2023-03-01T04:58:48;98328.66;;;15.87;59.42
55418;BME280;41287;47.554;7.844;2023-03-01T05:01:18;98325.94;;;15.87;59.46
55418;BME280;41287;47.554;7.844;2023-03-01T05:03:48;98328.66;;;15.87;59.41
55418;BME280;41287;47.554;7.844;2023-03-01T05:06:16;98324.06;;;15.87;59.36
55418;BME280;41287;47.554;7.844;2023-03-01T05:08:42;98327.56;;;15.88;59.50
55418;BME280;41287;47.554;7.844;2023-03-01T05:11:08;98324.06;;;15.87;59.44
55418;BME280;41287;47.554;7.844;2023-03-01T05:13:37;98317.84;;;15.87;59.40
55418;BME280;41287;47.554;7.844;2023-03-01T05:16:03;98313.25;;;15.87;59.34
55418;BME280;41287;47.554;7.844;2023-03-01T05:18:31;98311.34;;;15.88;59.50
55418;BME280;41287;47.554;7.844;2023-03-01T05:21:04;98312.44;;;15.87;59.33
55418;BME280;41287;47.554;7.844;2023-03-01T05:23:31;98311.34;;;15.88;59.42
55418;BME280;41287;47.554;7.844;2023-03-01T05:26:03;98301.63;;;15.87;59.36
55418;BME280;41287;47.554;7.844;2023-03-01T05:28:29;98299.72;;;15.87;59.32
55418;BME280;41287;47.554;7.844;2023-03-01T05:30:56;98301.63;;;15.87;59.40
55418;BME280;41287;47.554;7.844;2023-03-01T05:33:22;98300.53;;;15.88;59.43
55418;BME280;41287;47.554;7.844;2023-03-01T05:35:49;98296.22;;;15.87;59.40
55418;BME280;41287;47.554;7.844;2023-03-01T05:38:15;98299.72;;;15.87;59.41
55418;BME280;41287;47.554;7.844;2023-03-01T05:40:43;98298.94;;;15.87;59.56
55418;BME280;41287;47.554;7.844;2023-03-01T05:43:10;98299.72;;;15.87;59.40
55418;BME280;41287;47.554;7.844;2023-03-01T05:45:37;98293.53;;;15.87;59.41
55418;BME280;41287;47.554;7.844;2023-03-01T05:48:05;98292.72;;;15.86;59.41
55418;BME280;41287;47.554;7.844;2023-03-01T05:50:36;98284.63;;;15.86;59.44
55418;BME280;41287;47.554;7.844;2023-03-01T05:53:04;98282.72;;;15.87;59.51
55418;BME280;41287;47.554;7.844;2023-03-01T05:55:33;98277.31;;;15.87;59.38
55418;BME280;41287;47.554;7.844;2023-03-01T05:58:02;98275.41;;;15.87;59.37
55418;BME280;41287;47.554;7.844;2023-03-01T06:00:29;98275.41;;;15.87;59.48
55418;BME280;41287;47.554;7.844;2023-03-01T06:02:56;98278.13;;;15.87;59.41
55418;BME280;41287;47.554;7.844;2023-03-01T06:05:24;98273.81;;;15.86;59.44
55418;BME280;41287;47.554;7.844;2023-03-01T06:07:49;98271.13;;;15.86;59.52
55418;BME280;41287;47.554;7.844;2023-03-01T06:10:16;98274.63;;;15.87;59.38
55418;BME280;41287;47.554;7.844;2023-03-01T06:12:44;98280.81;;;15.87;59.47
55418;BME280;41287;47.554;7.844;2023-03-01T06:15:11;98271.13;;;15.86;59.41
55418;BME280;41287;47.554;7.844;2023-03-01T06:17:39;98271.91;;;15.87;59.41
55418;BME280;41287;47.554;7.844;2023-03-01T06:20:11;98274.63;;;15.87;59.35
55418;BME280;41287;47.554;7.844;2023-03-01T06:22:39;98277.31;;;15.87;59.50
55418;BME280;41287;47.554;7.844;2023-03-01T06:25:06;98268.41;;;15.86;59.36
55418;BME280;41287;47.554;7.844;2023-03-01T06:27:31;98276.22;;;15.88;59.50
55418;BME280;41287;47.554;7.844;2023-03-01T06:29:57;98277.31;;;15.87;59.43
55418;BME280;41287;47.554;7.844;2023-03-01T06:32:22;98277.31;;;15.87;59.50
55418;BME280;41287;47.554;7.844;2023-03-01T06:34:48;98285.41;;;15.87;59.42
55418;BME280;41287;47.554;7.844;2023-03-01T06:37:14;98284.31;;;15.88;59.35
55418;BME280;41287;47.554;7.844;2023-03-01T06:39:41;98285.41;;;15.87;59.45
55418;BME280;41287;47.554;7.844;2023-03-01T06:42:09;98285.41;;;15.87;59.42
55418;BME280;41287;47.554;7.844;2023-03-01T06:44:35;98288.13;;;15.87;59.37
55418;BME280;41287;47.554;7.844;2023-03-01T06:47:01;98283.53;;;15.87;59.40
55418;BME280;41287;47.554;7.844;2023-03-01T06:49:27;98281.13;;;15.86;59.53
55418;BME280;41287;47.554;7.844;2023-03-01T06:51:52;98293.53;;;15.87;59.38
55418;BME280;41287;47.554;7.844;2023-03-01T06:54:18;98293.53;;;15.87;59.44
55418;BME280;41287;47.554;7.844;2023-03-01T06:56:46;98293.53;;;15.87;59.38
55418;BME280;41287;47.554;7.844;2023-03-01T06:59:12;98284.63;;;15.86;59.49
55418;BME280;41287;47.554;7.844;2023-03-01T07:01:38;98288.13;;;15.87;59.35
55418;BME280;41287;47.554;7.844;2023-03-01T07:04:06;98293.53;;;15.87;59.43
55418;BME280;41287;47.554;7.844;2023-03-01T07:06:33;98288.13;;;15.87;59.38
55418;BME280;41287;47.554;7.844;2023-03-01T07:08:58;98286.22;;;15.87;59.48
55418;BME280;41287;47.554;7.844;2023-03-01T07:11:24;98291.63;;;15.87;59.39
55418;BME280;41287;47.554;7.844;2023-03-01T07:13:51;98295.44;;;15.86;59.46
55418;BME280;41287;47.554;7.844;2023-03-01T07:16:17;98304.34;;;15.87;59.32
55418;BME280;41287;47.554;7.844;2023-03-01T07:18:42;98291.63;;;15.87;59.32
55418;BME280;41287;47.554;7.844;2023-03-01T07:21:09;98301.63;;;15.87;59.43
55418;BME280;41287;47.554;7.844;2023-03-01T07:23:37;98309.75;;;15.87;59.44
55418;BME280;41287;47.554;7.844;2023-03-01T07:26:02;98299.72;;;15.87;59.42
55418;BME280;41287;47.554;7.844;2023-03-01T07:28:28;98300.84;;;15.86;59.48
55418;BME280;41287;47.554;7.844;2023-03-01T07:30:54;98304.63;;;15.85;59.12
55418;BME280;41287;47.554;7.844;2023-03-01T07:33:19;98294.13;;;15.84;58.89
55418;BME280;41287;47.554;7.844;2023-03-01T07:35:44;98301.13;;;15.85;58.13
55418;BME280;41287;47.554;7.844;2023-03-01T07:38:10;98286.81;;;15.84;58.08
55418;BME280;41287;47.554;7.844;2023-03-01T07:40:37;98291.13;;;15.85;57.99
55418;BME280;41287;47.554;7.844;2023-03-01T07:43:03;98294.13;;;15.84;58.15
55418;BME280;41287;47.554;7.844;2023-03-01T07:45:28;98292.22;;;15.84;58.08
55418;BME280;41287;47.554;7.844;2023-03-01T07:47:55;98289.53;;;15.84;58.02
55418;BME280;41287;47.554;7.844;2023-03-01T07:50:21;98284.47;;;15.83;57.53
55418;BME280;41287;47.554;7.844;2023-03-01T07:52:48;98281.75;;;15.83;57.54
55418;BME280;41287;47.554;7.844;2023-03-01T07:55:14;98272.84;;;15.82;57.35
55418;BME280;41287;47.554;7.844;2023-03-01T07:57:42;98276.34;;;15.83;57.66
55418;BME280;41287;47.554;7.844;2023-03-01T08:00:10;98270.16;;;15.82;57.63
55418;BME280;41287;47.554;7.844;2023-03-01T08:02:36;98271.72;;;15.83;57.54
55418;BME280;41287;47.554;7.844;2023-03-01T08:05:03;98273.66;;;15.83;57.99
55418;BME280;41287;47.554;7.844;2023-03-01T08:07:30;98277.13;;;15.83;57.96
55418;BME280;41287;47.554;7.844;2023-03-01T08:09:55;98270.94;;;15.83;57.86
55418;BME280;41287;47.554;7.844;2023-03-01T08:12:23;98270.16;;;15.82;57.96
55418;BME280;41287;47.554;7.844;2023-03-01T08:14:50;98279.81;;;15.83;57.96
55418;BME280;41287;47.554;7.844;2023-03-01T08:17:15;98275.22;;;15.84;57.96
55418;BME280;41287;47.554;7.844;2023-03-01T08:19:42;98276.34;;;15.83;58.02
55418;BME280;41287;47.554;7.844;2023-03-01T08:22:09;98272.50;;;15.84;58.07
55418;BME280;41287;47.554;7.844;2023-03-01T08:24:35;98271.72;;;15.83;58.21
55418;BME280;41287;47.554;7.844;2023-03-01T08:27:00;98265.22;;;15.84;58.02
55418;BME280;41287;47.554;7.844;2023-03-01T08:29:28;98273.66;;;15.83;58.16
55418;BME280;41287;47.554;7.844;2023-03-01T08:31:53;98274.41;;;15.83;58.21
55418;BME280;41287;47.554;7.844;2023-03-01T08:34:19;98282.53;;;15.83;58.23
55418;BME280;41287;47.554;7.844;2023-03-01T08:36:46;98282.53;;;15.83;58.08
55418;BME280;41287;47.554;7.844;2023-03-01T08:39:16;98276.34;;;15.83;58.20
55418;BME280;41287;47.554;7.844;2023-03-01T08:41:43;98270.94;;;15.83;58.23
55418;BME280;41287;47.554;7.844;2023-03-01T08:44:09;98275.22;;;15.84;58.19
55418;BME280;41287;47.554;7.844;2023-03-01T08:46:38;98268.25;;;15.83;58.40
55418;BME280;41287;47.554;7.844;2023-03-01T08:49:09;98277.13;;;15.83;58.53
55418;BME280;41287;47.554;7.844;2023-03-01T08:51:36;98264.41;;;15.84;58.34
55418;BME280;41287;47.554;7.844;2023-03-01T08:54:06;98262.84;;;15.83;58.37
55418;BME280;41287;47.554;7.844;2023-03-01T08:56:32;98267.13;;;15.84;58.43
55418;BME280;41287;47.554;7.844;2023-03-01T08:58:58;98269.81;;;15.84;58.29
55418;BME280;41287;47.554;7.844;2023-03-01T09:01:23;98252.81;;;15.83;58.49
55418;BME280;41287;47.554;7.844;2023-03-01T09:03:50;98249.34;;;15.83;58.40
55418;BME280;41287;47.554;7.844;2023-03-01T09:06:17;98252.81;;;15.83;58.37
55418;BME280;41287;47.554;7.844;2023-03-01T09:08:45;98252.81;;;15.83;58.31
55418;BME280;41287;47.554;7.844;2023-03-01T09:11:14;98243.94;;;15.83;58.35
55418;BME280;41287;47.554;7.844;2023-03-01T09:13:43;98241.22;;;15.83;58.39
55418;BME280;41287;47.554;7.844;2023-03-01T09:16:09;98243.94;;;15.83;58.38
55418;BME280;41287;47.554;7.844;2023-03-01T09:18:35;98239.28;;;15.83;58.51
55418;BME280;41287;47.554;7.844;2023-03-01T09:21:11;98241.22;;;15.83;58.50
55418;BME280;41287;47.554;7.844;2023-03-01T09:23:38;98247.41;;;15.83;58.52
55418;BME280;41287;47.554;7.844;2023-03-01T09:26:05;98245.50;;;15.84;58.39
55418;BME280;41287;47.554;7.844;2023-03-01T09:28:30;98239.28;;;15.83;58.57
55418;BME280;41287;47.554;7.844;2023-03-01T09:31:00;98241.22;;;15.83;58.63
55418;BME280;41287;47.554;7.844;2023-03-01T09:33:26;98248.19;;;15.84;58.51
55418;BME280;41287;47.554;7.844;2023-03-01T09:35:59;98238.53;;;15.83;58.47
55418;BME280;41287;47.554;7.844;2023-03-01T09:38:27;98241.22;;;15.83;58.54
55418;BME280;41287;47.554;7.844;2023-03-01T09:40:55;98235.50;;;15.84;58.57
55418;BME280;41287;47.554;7.844;2023-03-01T09:43:43;98235.31;;;15.80;58.53
55418;BME280;41287;47.554;7.844;2023-03-01T09:46:12;98233.13;;;15.83;58.63
55418;BME280;41287;47.554;7.844;2023-03-01T09:51:16;98223.09;;;15.83;58.52
55418;BME280;41287;47.554;7.844;2023-03-01T09:53:42;98225.78;;;15.83;58.63
55418;BME280;41287;47.554;7.844;2023-03-01T09:56:18;98224.22;;;15.82;58.74
55418;BME280;41287;47.554;7.844;2023-03-01T10:01:41;98228.81;;;15.82;58.72
55418;BME280;41287;47.554;7.844;2023-03-01T10:09:43;98221.50;;;15.82;58.77
55418;BME280;41287;47.554;7.844;2023-03-01T10:12:17;98218.81;;;15.82;58.56
55418;BME280;41287;47.554;7.844;2023-03-01T10:17:39;98213.72;;;15.80;58.72
55418;BME280;41287;47.554;7.844;2023-03-01T10:20:14;98221.50;;;15.82;58.63
55418;BME280;41287;47.554;7.844;2023-03-01T10:22:41;98210.72;;;15.82;58.70
55418;BME280;41287;47.554;7.844;2023-03-01T10:25:13;98218.81;;;15.82;58.76
55418;BME280;41287;47.554;7.844;2023-03-01T10:27:51;98209.09;;;15.81;58.68
55418;BME280;41287;47.554;7.844;2023-03-01T10:30:22;98215.31;;;15.82;58.74
55418;BME280;41287;47.554;7.844;2023-03-01T10:32:57;98213.41;;;15.82;58.71
55418;BME280;41287;47.554;7.844;2023-03-01T10:35:25;98211.50;;;15.83;58.77
55418;BME280;41287;47.554;7.844;2023-03-01T10:38:08;98200.22;;;15.80;58.76
55418;BME280;41287;47.554;7.844;2023-03-01T10:40:59;98201.81;;;15.82;58.79
55418;BME280;41287;47.554;7.844;2023-03-01T10:43:30;98196.88;;;15.84;58.73
55418;BME280;41287;47.554;7.844;2023-03-01T10:45:57;98205.31;;;15.82;58.77
55418;BME280;41287;47.554;7.844;2023-03-01T10:48:25;98199.09;;;15.82;58.77
55418;BME280;41287;47.554;7.844;2023-03-01T10:53:28;98206.09;;;15.83;58.70
55418;BME280;41287;47.554;7.844;2023-03-01T10:56:01;98199.91;;;15.82;58.92
55418;BME280;41287;47.554;7.844;2023-03-01T10:58:30;98195.28;;;15.83;58.76
55418;BME280;41287;47.554;7.844;2023-03-01T11:01:01;98194.50;;;15.82;58.74
55418;BME280;41287;47.554;7.844;2023-03-01T11:03:30;98200.69;;;15.83;58.68
55418;BME280;41287;47.554;7.844;2023-03-01T11:11:14;98189.09;;;15.82;58.79
55418;BME280;41287;47.554;7.844;2023-03-01T11:13:50;98176.69;;;15.81;58.72
55418;BME280;41287;47.554;7.844;2023-03-01T11:16:23;98175.59;;;15.82;58.77
55418;BME280;41287;47.554;7.844;2023-03-01T11:21:42;98176.38;;;15.83;58.81
55418;BME280;41287;47.554;7.844;2023-03-01T11:24:11;98179.09;;;15.83;58.91
55418;BME280;41287;47.554;7.844;2023-03-01T11:26:41;98179.84;;;15.83;58.81
55418;BME280;41287;47.554;7.844;2023-03-01T11:29:15;98175.59;;;15.82;58.78
55418;BME280;41287;47.554;7.844;2023-03-01T11:31:43;98170.97;;;15.83;58.73
55418;BME280;41287;47.554;7.844;2023-03-01T11:34:16;98171.28;;;15.81;58.83
55418;BME280;41287;47.554;7.844;2023-03-01T11:36:52;98168.28;;;15.83;58.75
55418;BME280;41287;47.554;7.844;2023-03-01T11:39:26;98170.97;;;15.83;58.79
55418;BME280;41287;47.554;7.844;2023-03-01T11:42:02;98161.28;;;15.82;58.88
55418;BME280;41287;47.554;7.844;2023-03-01T11:44:33;98169.03;;;15.83;58.90
55418;BME280;41287;47.554;7.844;2023-03-01T11:50:33;98161.75;;;15.84;58.76
55418;BME280;41287;47.554;7.844;2023-03-01T12:00:55;98157.13;;;15.84;58.81
55418;BME280;41287;47.554;7.844;2023-03-01T12:06:33;98144.28;;;15.81;58.98
55418;BME280;41287;47.554;7.844;2023-03-01T12:09:27;98143.16;;;15.82;58.86
55418;BME280;41287;47.554;7.844;2023-03-01T12:14:55;98133.16;;;15.83;58.82
55418;BME280;41287;47.554;7.844;2023-03-01T12:17:48;98126.16;;;15.82;59.08
55418;BME280;41287;47.554;7.844;2023-03-01T12:20:32;98131.22;;;15.83;59.11
55418;BME280;41287;47.554;7.844;2023-03-01T12:29:18;98117.25;;;15.81;58.98
55418;BME280;41287;47.554;7.844;2023-03-01T12:32:03;98126.16;;;15.82;58.74
55418;BME280;41287;47.554;7.844;2023-03-01T12:40:19;98113.75;;;15.80;59.06
55418;BME280;41287;47.554;7.844;2023-03-01T12:43:11;98111.06;;;15.80;59.09
55418;BME280;41287;47.554;7.844;2023-03-01T12:46:05;98101.03;;;15.81;58.93
55418;BME280;41287;47.554;7.844;2023-03-01T12:51:06;98101.03;;;15.81;58.99
55418;BME280;41287;47.554;7.844;2023-03-01T12:53:39;98087.53;;;15.81;58.92
55418;BME280;41287;47.554;7.844;2023-03-01T12:56:07;98079.13;;;15.83;59.05
55418;BME280;41287;47.554;7.844;2023-03-01T12:58:57;98086.72;;;15.80;59.03
55418;BME280;41287;47.554;7.844;2023-03-01T13:01:34;98084.84;;;15.81;59.09
55418;BME280;41287;47.554;7.844;2023-03-01T13:12:03;98084.53;;;15.83;59.10
55418;BME280;41287;47.554;7.844;2023-03-01T13:16:56;98083.38;;;15.84;59.06
55418;BME280;41287;47.554;7.844;2023-03-01T13:19:25;98079.88;;;15.83;59.11
55418;BME280;41287;47.554;7.844;2023-03-01T13:21:53;98085.28;;;15.83;58.98
55418;BME280;41287;47.554;7.844;2023-03-01T13:24:41;98082.13;;;15.81;59.03
55418;BME280;41287;47.554;7.844;2023-03-01T13:27:10;98074.03;;;15.81;58.99
55418;BME280;41287;47.554;7.844;2023-03-01T13:29:52;98082.94;;;15.82;59.17
55418;BME280;41287;47.554;7.844;2023-03-01T13:34:56;98077.53;;;15.82;59.10
55418;BME280;41287;47.554;7.844;2023-03-01T13:37:33;98077.53;;;15.82;58.98
55418;BME280;41287;47.554;7.844;2023-03-01T13:42:47;98086.44;;;15.82;59.33
55418;BME280;41287;47.554;7.844;2023-03-01T13:45:35;98083.72;;;15.82;59.07
55418;BME280;41287;47.554;7.844;2023-03-01T13:48:08;98075.28;;;15.84;59.06
55418;BME280;41287;47.554;7.844;2023-03-01T13:50:43;98072.56;;;15.84;59.00
55418;BME280;41287;47.554;7.844;2023-03-01T13:53:16;98065.63;;;15.83;59.10
55418;BME280;41287;47.554;7.844;2023-03-01T13:55:45;98058.28;;;15.83;59.03
55418;BME280;41287;47.554;7.844;2023-03-01T13:58:32;98056.72;;;15.82;59.02
55418;BME280;41287;47.554;7.844;2023-03-01T14:01:06;98058.63;;;15.82;58.96
55418;BME280;41287;47.554;7.844;2023-03-01T14:03:39;98059.06;;;15.84;59.13
55418;BME280;41287;47.554;7.844;2023-03-01T14:06:15;98060.22;;;15.83;59.06
55418;BME280;41287;47.554;7.844;2023-03-01T14:08:45;98061.78;;;15.84;59.09
55418;BME280;41287;47.554;7.844;2023-03-01T14:11:37;98058.63;;;15.82;59.05
55418;BME280;41287;47.554;7.844;2023-03-01T14:14:25;98039.69;;;15.82;59.08
55418;BME280;41287;47.554;7.844;2023-03-01T14:19:47;98048.59;;;15.82;59.12
55418;BME280;41287;47.554;7.844;2023-03-01T14:22:32;98052.09;;;15.83;59.29
55418;BME280;41287;47.554;7.844;2023-03-01T14:25:01;98054.81;;;15.83;58.98
55418;BME280;41287;47.554;7.844;2023-03-01T14:27:33;98052.09;;;15.83;59.21
55418;BME280;41287;47.554;7.844;2023-03-01T14:30:03;98054.81;;;15.83;59.08
55418;BME280;41287;47.554;7.844;2023-03-01T14:32:37;98060.97;;;15.83;59.21
55418;BME280;41287;47.554;7.844;2023-03-01T14:35:18;98060.22;;;15.83;59.17
55418;BME280;41287;47.554;7.844;2023-03-01T14:37:43;98052.88;;;15.83;59.15
55418;BME280;41287;47.554;7.844;2023-03-01T14:40:37;98057.81;;;15.81;59.08